Moran, TX

4:13 PM CST on February 27, 2015 (GMT -0600)
Albany | Change Station
CLOSE
Current Station
Personal Weather Station
Location: Albany, TX
Elevation: 1424 ft
Nearby Weather Stations

Elev 1424 ft 32.72 °N, 99.30 °W | Updated 2 minutes ago

Overcast
Overcast
23.3 °F
Feels Like 23 °F
N
3.0
Wind Variable Wind from ENE
Gusts 9.0 mph

Today
High -- | Low -- °F
--% Chance of Precip.
Yesterday
High -- | Low -- °F
Precip. -- in
7:07 AM 6:32 PM
Waxing Gibbous, 72% visible
Pressure 30.38 in
Visibility 5.0 miles
Clouds Scattered Clouds 900 ft
Scattered Clouds 1300 ft
Overcast 2200 ft
Windchill 23 °F
Dew Point 20 °F
Humidity 86%
Rainfall 0.00 in
Snow Depth Not available.
UV 0.0 out of 12
Pollen 4.20 out of 12
Air Quality Not available.
Flu Activity Not available.
METAR KBKD 272155Z AUTO 06007KT 5SM UP SCT009 SCT013 OVC022 M04/M07 A3038 RMK AO2 T10451066

More Conditions Fewer Conditions

Pressure 30.38 in
Visibility 5.0 miles
Clouds Scattered Clouds 900 ft
Scattered Clouds 1300 ft
Overcast 2200 ft
Windchill 23 °F
Dew Point 20 °F
Humidity 86%
Rainfall 0.00 in
Snow Depth Not available.
UV 0.0 out of 12
Pollen 4.20 out of 12
Air Quality Not available.
Flu Activity Not available.
METAR KBKD 272155Z AUTO 06007KT 5SM UP SCT009 SCT013 OVC022 M04/M07 A3038 RMK AO2 T10451066

More Conditions Fewer Conditions

10-Day Weather Forecast

Almanac

Astronomy

Feb. 27, 2015 Rise Set
Actual Time
Civil Twilight
Nautical Twilight
Astronomical Twilight
Moon
Length of Visible Light
Length of Day
Tomorrow will be .
, % of the Moon is Illuminated

Today's Extremes

State Highs State Lows

Community

WunderPhotos

Upload Photos

1,800,845 photos uploaded!

WunderBlogs® & News

Nearby

Air Quality

  Air Quality AQ Index Pollutant
Not available.

Snow Depth

Station Depth Elevation

Earthquake Activity

City Distance Mag. Time & Date
Minimum magnitude displayed is 2.5.

Coastal Water Temperatures

Place Temperature

Nearby Weather Stations

Winter Weather Advisory
Statement as of 3:08 PM CST on February 27, 2015

... Winter Weather Advisory now in effect until noon CST
Saturday...

The Winter Weather Advisory is now in effect until noon CST
Saturday.

* Impacts: slick and hazardous roads... especially bridges...
overpasses... and secondary roads.

* Timing: through noon Saturday.

* Accumulations: a tenth of an inch or less of ice is expected.

Precautionary/preparedness actions...

A Winter Weather Advisory means that periods of snow... sleet... or
freezing rain will cause travel difficulties. Be prepared for
slippery roads and limited visibilities and use caution while
driving.